createdAt,value
2022-11-20T00:01:26.973Z,98452.63
2022-11-20T00:03:56.668Z,98440.81
2022-11-20T00:06:24.586Z,98441.78
2022-11-20T00:08:52.241Z,98450.13
2022-11-20T00:11:23.366Z,98451.13
2022-11-20T00:13:54.319Z,98451.91
2022-11-20T00:16:25.510Z,98448.47
2022-11-20T00:18:53.249Z,98452.88
2022-11-20T00:21:30.183Z,98449.44
2022-11-20T00:23:58.340Z,98444.88
2022-11-20T00:26:27.220Z,98463.13
2022-11-20T00:28:57.872Z,98456.38
2022-11-20T00:31:25.148Z,98457.19
2022-11-20T00:33:51.938Z,98446.75
2022-11-20T00:36:24.579Z,98463.66
2022-11-20T00:38:58.996Z,98464.41
2022-11-20T00:41:28.237Z,98466.91
2022-11-20T00:43:56.711Z,98457.72
2022-11-20T00:46:26.645Z,98456.06
2022-11-20T00:48:53.497Z,98461.38
2022-11-20T00:51:24.239Z,98462.06
2022-11-20T00:53:51.506Z,98465.63
2022-11-20T00:56:20.286Z,98477.56
2022-11-20T00:58:49.297Z,98469.13
2022-11-20T01:01:25.825Z,98469.06
2022-11-20T01:03:56.473Z,98472.25
2022-11-20T01:06:38.115Z,98482.41
2022-11-20T01:09:08.874Z,98478.34
2022-11-20T01:11:39.918Z,98483.34
2022-11-20T01:14:11.384Z,98482.56
2022-11-20T01:16:49.146Z,98479.06
2022-11-20T01:19:20.925Z,98482.72
2022-11-20T01:21:52.614Z,98486.22
2022-11-20T01:24:21.594Z,98490.56
2022-11-20T01:26:50.973Z,98488.34
2022-11-20T01:29:22.781Z,98491.00
2022-11-20T01:31:50.059Z,98493.22
2022-11-20T01:34:20.295Z,98489.19
2022-11-20T01:36:47.667Z,98495.31
2022-11-20T01:39:26.760Z,98488.34
2022-11-20T01:42:14.357Z,98489.88
2022-11-20T01:44:59.174Z,98483.34
2022-11-20T01:47:46.435Z,98490.47
2022-11-20T01:50:26.296Z,98485.31
2022-11-20T01:53:08.267Z,98480.72
2022-11-20T01:55:46.508Z,98483.06
2022-11-20T01:58:13.827Z,98477.75
2022-11-20T02:00:41.939Z,98484.78
2022-11-20T02:03:14.481Z,98483.84
2022-11-20T02:05:46.298Z,98472.56
2022-11-20T02:08:13.819Z,98476.03
2022-11-20T02:10:41.734Z,98484.47
2022-11-20T02:13:27.734Z,98481.88
2022-11-20T02:15:54.887Z,98486.97
2022-11-20T02:18:22.695Z,98488.34
2022-11-20T02:20:55.379Z,98494.28
2022-11-20T02:23:39.118Z,98474.28
2022-11-20T02:26:10.414Z,98488.50
2022-11-20T02:28:37.502Z,98495.47
2022-11-20T02:31:04.527Z,98483.78
2022-11-20T02:33:31.542Z,98488.69
2022-11-20T02:35:58.404Z,98487.97
2022-11-20T02:38:25.448Z,98485.59
2022-11-20T02:40:55.542Z,98484.69
2022-11-20T02:43:23.695Z,98485.50
2022-11-20T02:45:50.490Z,98482.09
2022-11-20T02:48:17.286Z,98484.69
2022-11-20T02:50:44.097Z,98489.25
2022-11-20T02:53:10.914Z,98490.22
2022-11-20T02:55:37.737Z,98488.31
2022-11-20T02:58:04.575Z,98493.56
2022-11-20T03:00:31.556Z,98459.28
2022-11-20T03:02:58.315Z,98492.72
2022-11-20T03:05:25.093Z,98496.22
2022-11-20T03:07:51.893Z,98489.38
2022-11-20T03:10:18.688Z,98498.09
2022-11-20T03:12:46.390Z,98484.34
2022-11-20T03:15:13.269Z,98481.16
2022-11-20T03:17:40.129Z,98486.25
2022-11-20T03:20:08.085Z,98490.44
2022-11-20T03:22:34.841Z,98480.19
2022-11-20T03:25:01.640Z,98487.16
2022-11-20T03:27:28.391Z,98479.50
2022-11-20T03:29:55.171Z,98474.63
2022-11-20T03:32:21.939Z,98487.50
2022-11-20T03:34:48.766Z,98479.63
2022-11-20T03:37:15.557Z,98488.59
2022-11-20T03:39:42.358Z,98485.09
2022-11-20T03:42:30.015Z,98487.75
2022-11-20T03:44:56.843Z,98490.41
2022-11-20T03:47:23.836Z,98487.66
2022-11-20T03:49:50.814Z,98490.78
2022-11-20T03:52:17.557Z,98480.28
2022-11-20T03:54:44.396Z,98479.50
2022-11-20T03:57:11.150Z,98476.44
2022-11-20T03:59:37.992Z,98480.84
2022-11-20T04:02:04.852Z,98483.13
2022-11-20T04:04:31.709Z,98481.59
2022-11-20T04:06:58.533Z,98479.94
2022-11-20T04:09:25.364Z,98481.59
2022-11-20T04:11:52.215Z,98479.63
2022-11-20T04:14:18.966Z,98479.50
2022-11-20T04:16:45.730Z,98471.16
2022-11-20T04:19:15.818Z,98481.59
2022-11-20T04:21:44.310Z,98476.44
2022-11-20T04:24:13.745Z,98476.31
2022-11-20T04:26:41.159Z,98466.66
2022-11-20T04:29:11.620Z,98468.63
2022-11-20T04:31:38.456Z,98467.25
2022-11-20T04:34:07.979Z,98466.09
2022-11-20T04:36:35.462Z,98459.22
2022-11-20T04:39:06.236Z,98467.03
2022-11-20T04:41:37.630Z,98466.09
2022-11-20T04:44:06.698Z,98455.94
2022-11-20T04:46:40.645Z,98466.53
2022-11-20T04:49:08.699Z,98462.31
2022-11-20T04:51:36.038Z,98460.59
2022-11-20T04:54:02.937Z,98464.97
2022-11-20T04:56:29.767Z,98468.69
2022-11-20T04:58:56.681Z,98465.38
2022-11-20T05:01:25.635Z,98466.88
2022-11-20T05:03:53.004Z,98462.31
2022-11-20T05:06:23.023Z,98455.50
2022-11-20T05:08:50.288Z,98459.81
2022-11-20T05:11:21.457Z,98463.00
2022-11-20T05:13:49.547Z,98448.59
2022-11-20T05:16:19.888Z,98458.53
2022-11-20T05:18:47.596Z,98459.63
2022-11-20T05:21:15.775Z,98453.53
2022-11-20T05:23:44.088Z,98463.84
2022-11-20T05:26:17.562Z,98462.31
2022-11-20T05:28:44.699Z,98450.50
2022-11-20T05:31:25.088Z,98460.94
2022-11-20T05:33:53.816Z,98470.69
2022-11-20T05:36:20.670Z,98462.94
2022-11-20T05:38:50.583Z,98457.03
2022-11-20T05:41:20.765Z,98445.63
2022-11-20T05:43:49.381Z,98456.03
2022-11-20T05:46:22.331Z,98455.50
2022-11-20T05:48:52.046Z,98455.50
2022-11-20T05:51:20.706Z,98456.47
2022-11-20T05:53:48.757Z,98467.38
2022-11-20T05:56:21.130Z,98459.47
2022-11-20T05:58:49.156Z,98468.41
2022-11-20T06:01:23.366Z,98457.31
2022-11-20T06:03:51.595Z,98465.97
2022-11-20T06:06:20.057Z,98460.59
2022-11-20T06:08:46.904Z,98444.84
2022-11-20T06:11:15.661Z,98465.06
2022-11-20T06:13:43.033Z,98463.09
2022-11-20T06:16:11.770Z,98462.41
2022-11-20T06:18:38.928Z,98467.22
2022-11-20T06:21:13.255Z,98463.28
2022-11-20T06:23:41.212Z,98453.53
2022-11-20T06:26:10.953Z,98461.28
2022-11-20T06:28:38.331Z,98458.84
2022-11-20T06:31:06.633Z,98467.72
2022-11-20T06:33:33.885Z,98464.81
2022-11-20T06:36:07.257Z,98464.13
2022-11-20T06:38:37.559Z,98463.94
2022-11-20T06:41:06.039Z,98463.00
2022-11-20T06:43:32.972Z,98462.03
2022-11-20T06:46:00.634Z,98469.03
2022-11-20T06:48:29.012Z,98465.41
2022-11-20T06:50:56.267Z,98460.06
2022-11-20T06:53:23.939Z,98464.16
2022-11-20T06:55:51.840Z,98469.13
2022-11-20T06:58:19.364Z,98469.47
2022-11-20T07:00:46.558Z,98473.25
2022-11-20T07:03:13.725Z,98422.09
2022-11-20T07:05:41.164Z,98465.53
2022-11-20T07:08:09.099Z,98475.56
2022-11-20T07:10:36.141Z,98440.88
2022-11-20T07:13:03.157Z,98480.31
2022-11-20T07:15:30.080Z,98475.91
2022-11-20T07:17:59.874Z,98481.00
2022-11-20T07:20:26.778Z,98485.34
2022-11-20T07:22:58.646Z,98480.38
2022-11-20T07:25:26.782Z,98487.84
2022-11-20T07:27:53.754Z,98484.44
2022-11-20T07:30:20.558Z,98484.34
2022-11-20T07:32:51.381Z,98487.78
2022-11-20T07:35:18.180Z,98478.16
2022-11-20T07:37:46.581Z,98479.88
2022-11-20T07:40:14.398Z,98482.53
2022-11-20T07:42:49.893Z,98482.22
2022-11-20T07:45:18.049Z,98497.00
2022-11-20T07:47:44.855Z,98483.06
2022-11-20T07:50:13.036Z,98479.03
2022-11-20T07:52:39.911Z,98488.84
2022-11-20T07:55:07.684Z,98462.94
2022-11-20T07:57:34.581Z,98494.56
2022-11-20T08:00:01.440Z,98481.94
2022-11-20T08:02:28.311Z,98481.94
2022-11-20T08:04:55.180Z,98494.56
2022-11-20T08:07:22.070Z,98483.63
2022-11-20T08:09:48.889Z,98497.00
2022-11-20T08:12:40.707Z,98502.91
2022-11-20T08:15:13.055Z,98497.91
2022-11-20T08:17:40.412Z,98507.09
2022-11-20T08:20:07.923Z,98501.00
2022-11-20T08:22:35.663Z,98506.19
2022-11-20T08:25:02.554Z,98507.03
2022-11-20T08:27:29.739Z,98510.38
2022-11-20T08:29:56.645Z,98497.91
2022-11-20T08:32:23.727Z,98511.50
2022-11-20T08:34:50.599Z,98513.13
2022-11-20T08:37:17.399Z,98514.69
2022-11-20T08:39:44.167Z,98500.47
2022-11-20T08:42:11.106Z,98511.44
2022-11-20T08:44:37.971Z,98512.19
2022-11-20T08:47:04.767Z,98512.34
2022-11-20T08:49:31.607Z,98516.66
2022-11-20T08:51:58.433Z,98514.16
2022-11-20T08:54:25.280Z,98512.88
2022-11-20T08:56:52.114Z,98505.38
2022-11-20T08:59:36.739Z,98511.06
2022-11-20T09:02:05.684Z,98508.56
2022-11-20T09:04:32.587Z,98510.91
2022-11-20T09:07:01.292Z,98499.19
2022-11-20T09:09:28.188Z,98518.88
2022-11-20T09:11:55.072Z,98519.78
2022-11-20T09:14:22.356Z,98518.13
2022-11-20T09:16:49.187Z,98511.91
2022-11-20T09:22:03.018Z,98525.44
2022-11-20T09:24:29.912Z,98521.47
2022-11-20T09:26:56.822Z,98525.56
2022-11-20T09:29:23.870Z,98520.41
2022-11-20T09:31:50.987Z,98527.41
2022-11-20T09:34:17.837Z,98507.47
2022-11-20T09:36:44.647Z,98520.41
2022-11-20T09:39:11.407Z,98525.63
2022-11-20T09:41:40.975Z,98532.41
2022-11-20T09:44:48.289Z,98524.81
2022-11-20T09:47:34.131Z,98531.97
2022-11-20T09:50:49.617Z,98531.03
2022-11-20T09:53:37.450Z,98524.06
2022-11-20T09:56:05.894Z,98515.44
2022-11-20T09:58:50.254Z,98539.00
2022-11-20T10:01:20.599Z,98532.16
2022-11-20T10:04:18.272Z,98543.19
2022-11-20T10:07:37.513Z,98528.09
2022-11-20T10:10:05.058Z,98517.34
2022-11-20T10:12:43.734Z,98535.19
2022-11-20T10:15:28.052Z,98536.81
2022-11-20T10:18:27.756Z,98532.34
2022-11-20T10:21:37.007Z,98528.91
2022-11-20T10:24:25.964Z,98535.59
2022-11-20T10:27:43.128Z,98540.94
2022-11-20T10:30:12.608Z,98536.47
2022-11-20T10:32:43.588Z,98541.75
2022-11-20T10:35:29.825Z,98532.41
2022-11-20T10:38:01.831Z,98539.09
2022-11-20T10:40:54.393Z,98542.59
2022-11-20T10:43:34.278Z,98545.03
2022-11-20T10:46:15.357Z,98534.47
2022-11-20T10:48:45.594Z,98542.06
2022-11-20T10:51:31.004Z,98546.22
2022-11-20T10:54:23.683Z,98543.72
2022-11-20T10:56:58.096Z,98545.00
2022-11-20T11:00:00.101Z,98541.78
2022-11-20T11:02:43.216Z,98543.50
2022-11-20T11:05:41.727Z,98540.72
2022-11-20T11:08:15.985Z,98540.56
2022-11-20T11:10:54.556Z,98511.72
2022-11-20T11:13:31.701Z,98529.13
2022-11-20T11:15:59.348Z,98526.47
2022-11-20T11:18:35.065Z,98528.19
2022-11-20T11:21:05.420Z,98518.94
2022-11-20T11:23:43.653Z,98512.63
2022-11-20T11:26:23.710Z,98510.66
2022-11-20T11:29:01.617Z,98507.03
2022-11-20T11:31:36.453Z,98502.63
2022-11-20T11:34:23.620Z,98507.34
2022-11-20T11:36:59.644Z,98497.63
2022-11-20T11:39:29.923Z,98495.03
2022-11-20T11:41:58.239Z,98480.31
2022-11-20T11:44:54.441Z,98480.16
2022-11-20T11:47:23.931Z,98478.38
2022-11-20T11:50:21.963Z,98481.66
2022-11-20T11:53:09.624Z,98472.69
2022-11-20T11:55:47.777Z,98468.03
2022-11-20T11:58:50.589Z,98466.47
2022-11-20T12:01:35.055Z,98461.63
2022-11-20T12:04:36.665Z,98458.31
2022-11-20T12:07:44.786Z,98454.91
2022-11-20T12:10:04.817Z,98450.31
2022-11-20T12:12:41.875Z,98456.25
2022-11-20T12:15:14.515Z,98458.16
2022-11-20T12:17:41.295Z,98447.75
2022-11-20T12:20:17.425Z,98434.91
2022-11-20T12:23:00.963Z,98444.63
2022-11-20T12:25:36.738Z,98446.94
2022-11-20T12:29:04.008Z,98437.13
2022-11-20T12:31:57.776Z,98428.47
2022-11-20T12:34:33.377Z,98426.59
2022-11-20T12:37:43.999Z,98428.81
2022-11-20T12:40:35.595Z,98418.41
2022-11-20T12:43:41.663Z,98423.25
2022-11-20T12:46:29.380Z,98418.19
2022-11-20T12:49:28.207Z,98431.34
2022-11-20T12:52:22.149Z,98424.06
2022-11-20T12:55:38.316Z,98433.25
2022-11-20T12:58:32.488Z,98416.44
2022-11-20T13:01:37.697Z,98437.50
2022-11-20T13:04:31.273Z,98437.50
2022-11-20T13:06:58.708Z,98431.72
2022-11-20T13:09:26.755Z,98414.09
2022-11-20T13:12:13.377Z,98428.97
2022-11-20T13:15:33.009Z,98428.53
2022-11-20T13:18:02.956Z,98424.66
2022-11-20T13:20:32.024Z,98428.28
2022-11-20T13:22:59.669Z,98414.25
2022-11-20T13:25:36.491Z,98438.06
2022-11-20T13:28:11.947Z,98427.84
2022-11-20T13:30:55.017Z,98431.63
2022-11-20T13:33:37.734Z,98427.34
2022-11-20T13:36:06.614Z,98417.34
2022-11-20T13:38:50.554Z,98411.50
2022-11-20T13:41:40.383Z,98412.19
2022-11-20T13:44:10.322Z,98403.31
2022-11-20T13:46:46.719Z,98408.91
2022-11-20T13:49:30.350Z,98398.97
2022-11-20T13:52:49.868Z,98395.63
2022-11-20T13:55:43.819Z,98376.44
2022-11-20T13:58:49.094Z,98398.41
2022-11-20T14:01:24.999Z,98395.72
2022-11-20T14:04:08.585Z,98397.63
2022-11-20T14:06:47.844Z,98388.88
2022-11-20T14:09:30.964Z,98372.69
2022-11-20T14:11:58.273Z,98386.97
2022-11-20T14:14:30.551Z,98386.78
2022-11-20T14:17:29.260Z,98383.53
2022-11-20T14:20:06.535Z,98388.63
2022-11-20T14:22:33.367Z,98389.56
2022-11-20T14:25:17.405Z,98388.38
2022-11-20T14:27:59.087Z,98392.56
2022-11-20T14:30:48.427Z,98403.47
2022-11-20T14:33:16.344Z,98358.25
2022-11-20T14:35:53.082Z,98382.97
2022-11-20T14:38:26.172Z,98387.13
2022-11-20T14:40:53.832Z,98396.75
2022-11-20T14:43:29.882Z,98397.81
2022-11-20T14:46:04.485Z,98393.72
2022-11-20T14:48:42.494Z,98402.50
2022-11-20T14:51:24.226Z,98388.44
2022-11-20T14:53:50.992Z,98383.63
2022-11-20T14:56:25.969Z,98378.78
2022-11-20T14:58:59.483Z,98376.81
2022-11-20T15:01:32.742Z,98373.03
2022-11-20T15:04:12.157Z,98349.16
2022-11-20T15:06:50.975Z,98361.44
2022-11-20T15:09:17.873Z,98360.44
2022-11-20T15:11:57.313Z,98366.09
2022-11-20T15:14:26.331Z,98360.84
2022-11-20T15:16:53.885Z,98358.25
2022-11-20T15:19:24.766Z,98359.91
2022-11-20T15:21:52.059Z,98365.03
2022-11-20T15:24:19.800Z,98356.03
2022-11-20T15:26:46.809Z,98363.94
2022-11-20T15:29:19.804Z,98362.19
2022-11-20T15:31:46.708Z,98350.91
2022-11-20T15:34:16.341Z,98359.78
2022-11-20T15:36:44.494Z,98345.25
2022-11-20T15:39:12.388Z,98343.75
2022-11-20T15:41:39.750Z,98341.66
2022-11-20T15:44:06.646Z,98341.59
2022-11-20T15:46:39.453Z,98334.66
2022-11-20T15:49:12.341Z,98345.16
2022-11-20T15:51:42.844Z,98348.81
2022-11-20T15:54:16.595Z,98330.88
2022-11-20T15:56:43.427Z,98311.75
2022-11-20T15:59:10.193Z,98319.03
2022-11-20T16:01:37.445Z,98322.19
2022-11-20T16:04:09.539Z,98322.28
2022-11-20T16:06:36.309Z,98322.19
2022-11-20T16:09:03.159Z,98326.63
2022-11-20T16:11:30.048Z,98325.53
2022-11-20T16:14:15.346Z,98324.88
2022-11-20T16:16:43.994Z,98336.38
2022-11-20T16:19:14.626Z,98329.38
2022-11-20T16:21:42.571Z,98320.88
2022-11-20T16:24:13.854Z,98324.38
2022-11-20T16:26:41.242Z,98331.19
2022-11-20T16:29:08.752Z,98328.63
2022-11-20T16:31:35.670Z,98326.19
2022-11-20T16:34:12.259Z,98322.78
2022-11-20T16:36:50.263Z,98320.44
2022-11-20T16:39:23.162Z,98316.34
2022-11-20T16:41:50.332Z,98313.69
2022-11-20T16:44:17.248Z,98303.44
2022-11-20T16:46:44.020Z,98302.00
2022-11-20T16:49:14.637Z,98300.84
2022-11-20T16:51:41.728Z,98294.69
2022-11-20T16:54:10.431Z,98306.66
2022-11-20T16:56:37.369Z,98305.69
2022-11-20T16:59:04.420Z,98304.84
2022-11-20T17:01:32.697Z,98302.44
2022-11-20T17:04:05.372Z,98294.84
2022-11-20T17:06:35.489Z,98293.16
2022-11-20T17:09:03.735Z,98288.16
2022-11-20T17:11:31.338Z,98289.75
2022-11-20T17:14:03.530Z,98300.31
2022-11-20T17:16:31.540Z,98286.91
2022-11-20T17:19:03.204Z,98283.66
2022-11-20T17:21:32.517Z,98270.31
2022-11-20T17:24:05.387Z,98289.66
2022-11-20T17:26:33.280Z,98287.97
2022-11-20T17:29:10.137Z,98282.13
2022-11-20T17:31:38.617Z,98290.41
2022-11-20T17:34:11.136Z,98283.66
2022-11-20T17:36:44.819Z,98282.91
2022-11-20T17:39:17.103Z,98280.31
2022-11-20T17:41:44.185Z,98274.47
2022-11-20T17:44:12.452Z,98273.78
2022-11-20T17:46:39.402Z,98274.63
2022-11-20T17:49:06.351Z,98258.81
2022-11-20T17:51:35.020Z,98253.47
2022-11-20T17:54:07.176Z,98264.41
2022-11-20T17:56:54.232Z,98259.91
2022-11-20T17:59:21.264Z,98260.78
2022-11-20T18:01:48.217Z,98253.91
2022-11-20T18:04:15.095Z,98251.31
2022-11-20T18:06:43.170Z,98253.97
2022-11-20T18:09:10.946Z,98246.91
2022-11-20T18:11:40.298Z,98241.47
2022-11-20T18:14:31.075Z,98242.31
2022-11-20T18:17:07.831Z,98242.50
2022-11-20T18:19:47.730Z,98238.75
2022-11-20T18:22:22.757Z,98234.56
2022-11-20T18:24:49.934Z,98235.16
2022-11-20T18:27:20.060Z,98231.81
2022-11-20T18:29:52.252Z,98209.81
2022-11-20T18:32:21.851Z,98224.81
2022-11-20T18:34:48.876Z,98229.06
2022-11-20T18:37:16.594Z,98218.59
2022-11-20T18:39:43.752Z,98199.16
2022-11-20T18:42:34.826Z,98206.66
2022-11-20T18:45:04.348Z,98209.91
2022-11-20T18:47:37.741Z,98200.41
2022-11-20T18:50:07.700Z,98200.97
2022-11-20T18:52:44.567Z,98194.13
2022-11-20T18:55:12.597Z,98196.31
2022-11-20T18:57:39.510Z,98201.28
2022-11-20T19:00:09.918Z,98186.16
2022-11-20T19:02:42.145Z,98194.78
2022-11-20T19:05:14.703Z,98189.56
2022-11-20T19:07:41.871Z,98168.22
2022-11-20T19:10:09.081Z,98184.47
2022-11-20T19:12:35.919Z,98208.66
2022-11-20T19:15:02.936Z,98217.34
2022-11-20T19:17:29.723Z,98221.00
2022-11-20T19:19:56.540Z,98224.41
2022-11-20T19:22:23.436Z,98223.66
2022-11-20T19:24:50.283Z,98214.56
2022-11-20T19:27:17.140Z,98212.47
2022-11-20T19:29:44.323Z,98208.38
2022-11-20T19:32:11.246Z,98215.69
2022-11-20T19:34:38.024Z,98208.78
2022-11-20T19:37:05.520Z,98201.88
2022-11-20T19:39:32.349Z,98194.63
2022-11-20T19:41:59.121Z,98194.31
2022-11-20T19:44:25.968Z,98182.47
2022-11-20T19:46:52.834Z,98180.47
2022-11-20T19:49:19.693Z,98191.16
2022-11-20T19:51:48.978Z,98175.66
2022-11-20T19:54:16.855Z,98179.88
2022-11-20T19:56:45.287Z,98156.06
2022-11-20T19:59:12.954Z,98170.31
2022-11-20T20:01:39.981Z,98156.31
2022-11-20T20:04:07.140Z,98164.56
2022-11-20T20:06:38.966Z,98172.16
2022-11-20T20:09:12.083Z,98159.22
2022-11-20T20:11:40.004Z,98157.72
2022-11-20T20:14:10.810Z,98161.22
2022-11-20T20:16:37.662Z,98164.72
2022-11-20T20:19:05.865Z,98169.22
2022-11-20T20:21:35.202Z,98170.22
2022-11-20T20:24:02.804Z,98171.28
2022-11-20T20:26:31.641Z,98173.44
2022-11-20T20:28:59.413Z,98178.34
2022-11-20T20:31:29.685Z,98167.44
2022-11-20T20:33:57.321Z,98171.63
2022-11-20T20:36:25.009Z,98164.13
2022-11-20T20:38:59.540Z,98164.19
2022-11-20T20:41:26.455Z,98167.28
2022-11-20T20:44:12.340Z,98167.44
2022-11-20T20:46:39.910Z,98175.75
2022-11-20T20:49:07.335Z,98185.41
2022-11-20T20:51:34.953Z,98185.41
2022-11-20T20:54:01.824Z,98185.28
2022-11-20T20:56:28.643Z,98180.19
2022-11-20T20:58:55.496Z,98181.78
2022-11-20T21:01:22.886Z,98186.22
2022-11-20T21:03:49.823Z,98190.19
2022-11-20T21:06:16.606Z,98191.69
2022-11-20T21:08:44.585Z,98180.72
2022-11-20T21:11:17.450Z,98192.69
2022-11-20T21:13:46.496Z,98184.19
2022-11-20T21:16:16.358Z,98190.50
2022-11-20T21:18:43.217Z,98180.47
2022-11-20T21:21:32.333Z,98193.47
2022-11-20T21:23:59.556Z,98189.84
2022-11-20T21:26:26.458Z,98190.81
2022-11-20T21:28:53.776Z,98188.97
2022-11-20T21:31:24.684Z,98192.41
2022-11-20T21:33:54.688Z,98191.13
2022-11-20T21:36:28.154Z,98204.09
2022-11-20T21:38:56.834Z,98202.78
2022-11-20T21:41:26.540Z,98208.66
2022-11-20T21:44:29.201Z,98199.16
2022-11-20T21:46:44.604Z,98181.72
2022-11-20T21:49:11.716Z,98188.56
2022-11-20T21:51:38.636Z,98185.06
2022-11-20T21:54:05.727Z,98168.31
2022-11-20T21:56:32.549Z,98188.25
2022-11-20T21:58:59.445Z,98183.94
2022-11-20T22:01:29.467Z,98184.78
2022-11-20T22:04:02.093Z,98177.31
2022-11-20T22:06:34.372Z,98180.50
2022-11-20T22:09:02.595Z,98186.88
2022-11-20T22:11:30.437Z,98194.00
2022-11-20T22:14:16.243Z,98199.16
2022-11-20T22:16:43.107Z,98202.78
2022-11-20T22:19:10.010Z,98206.13
2022-11-20T22:21:40.017Z,98210.31
2022-11-20T22:24:06.999Z,98210.88
2022-11-20T22:26:40.336Z,98220.34
2022-11-20T22:29:08.532Z,98210.03
2022-11-20T22:31:35.313Z,98210.66
2022-11-20T22:34:02.774Z,98207.25
2022-11-20T22:36:31.723Z,98201.09
2022-11-20T22:38:58.780Z,98204.16
2022-11-20T22:41:28.334Z,98196.25
2022-11-20T22:44:04.145Z,98211.41
2022-11-20T22:46:36.708Z,98202.78
2022-11-20T22:49:10.913Z,98202.78
2022-11-20T22:51:40.675Z,98211.25
2022-11-20T22:54:09.342Z,98210.97
2022-11-20T22:56:36.108Z,98219.78
2022-11-20T22:59:02.995Z,98224.50
2022-11-20T23:01:36.627Z,98217.00
2022-11-20T23:04:06.655Z,98201.25
2022-11-20T23:06:36.526Z,98230.41
2022-11-20T23:09:05.843Z,98219.94
2022-11-20T23:11:33.204Z,98219.88
2022-11-20T23:14:15.274Z,98223.38
2022-11-20T23:16:42.448Z,98236.34
2022-11-20T23:19:13.080Z,98238.16
2022-11-20T23:21:41.909Z,98231.63
2022-11-20T23:24:09.714Z,98231.31
2022-11-20T23:26:39.218Z,98227.22
2022-11-20T23:29:06.856Z,98219.78
2022-11-20T23:31:35.536Z,98225.25
2022-11-20T23:34:02.969Z,98228.72
2022-11-20T23:36:29.894Z,98185.25
2022-11-20T23:38:56.926Z,98234.81
2022-11-20T23:41:23.740Z,98226.84
2022-11-20T23:43:50.653Z,98232.22
2022-11-20T23:46:17.563Z,98233.75
2022-11-20T23:48:45.190Z,98222.69
2022-11-20T23:51:13.262Z,98219.09
2022-11-20T23:53:40.111Z,98228.00
2022-11-20T23:56:07.007Z,98230.69
2022-11-20T23:58:38.614Z,98231.47
